createdAt,value
2022-11-22T00:03:45.645Z,58.31
2022-11-22T00:08:48.757Z,65.19
2022-11-22T00:13:51.869Z,57.81
2022-11-22T00:18:54.971Z,58.04
2022-11-22T00:23:58.284Z,65.74
2022-11-22T00:29:01.295Z,60.41
2022-11-22T00:34:04.318Z,58.42
2022-11-22T00:39:07.304Z,66.39
2022-11-22T00:44:10.422Z,59.44
2022-11-22T00:49:13.419Z,58.70
2022-11-22T00:54:16.527Z,66.38
2022-11-22T00:59:19.534Z,58.06
2022-11-22T01:04:22.744Z,57.56
2022-11-22T01:09:26.520Z,65.17
2022-11-22T01:14:29.473Z,59.18
2022-11-22T01:19:32.557Z,64.82
2022-11-22T01:24:35.691Z,58.40
2022-11-22T01:29:38.698Z,59.87
2022-11-22T01:34:41.603Z,64.72
2022-11-22T01:39:44.709Z,56.47
2022-11-22T01:44:49.157Z,63.79
2022-11-22T01:49:58.142Z,63.27
2022-11-22T01:55:07.052Z,57.52
2022-11-22T02:00:14.255Z,65.10
2022-11-22T02:05:21.656Z,59.79
2022-11-22T02:10:28.759Z,61.58
2022-11-22T02:15:32.175Z,63.76
2022-11-22T02:20:36.105Z,56.67
2022-11-22T02:25:41.879Z,61.11
2022-11-22T02:30:44.982Z,68.46
2022-11-22T02:35:48.403Z,59.38
2022-11-22T02:41:06.667Z,58.19
2022-11-22T02:46:12.497Z,66.04
2022-11-22T02:51:17.361Z,59.42
2022-11-22T02:56:20.498Z,57.34
2022-11-22T03:01:23.738Z,65.02
2022-11-22T03:06:26.921Z,57.70
2022-11-22T03:11:29.948Z,63.68
2022-11-22T03:16:33.031Z,59.59
2022-11-22T03:21:36.247Z,61.93
2022-11-22T03:26:39.555Z,63.67
2022-11-22T03:31:42.459Z,59.91
2022-11-22T03:36:45.567Z,60.12
2022-11-22T03:41:48.782Z,58.28
2022-11-22T03:46:51.991Z,61.23
2022-11-22T03:51:54.893Z,64.07
2022-11-22T03:56:58.107Z,56.98
2022-11-22T04:02:01.238Z,64.76
2022-11-22T04:07:04.604Z,63.93
2022-11-22T04:12:07.738Z,63.34
2022-11-22T04:17:14.537Z,64.21
2022-11-22T04:22:17.542Z,65.17
2022-11-22T04:27:20.458Z,63.24
2022-11-22T04:32:41.881Z,62.28
2022-11-22T04:37:51.588Z,60.48
2022-11-22T04:43:13.193Z,59.84
2022-11-22T04:48:16.519Z,61.53
2022-11-22T04:53:19.612Z,68.24
2022-11-22T04:58:23.272Z,58.76
2022-11-22T05:03:26.137Z,59.25
2022-11-22T05:08:29.859Z,66.45
2022-11-22T05:13:36.439Z,56.72
2022-11-22T05:18:39.867Z,60.26
2022-11-22T05:23:55.377Z,66.96
2022-11-22T05:28:59.679Z,64.69
2022-11-22T05:34:03.327Z,64.66
2022-11-22T05:39:06.316Z,64.45
2022-11-22T05:44:09.644Z,65.04
2022-11-22T05:49:12.750Z,66.98
2022-11-22T05:54:15.859Z,61.32
2022-11-22T05:59:18.779Z,58.36
2022-11-22T06:04:21.975Z,64.28
2022-11-22T06:09:24.981Z,56.84
2022-11-22T06:14:28.305Z,64.46
2022-11-22T06:19:31.736Z,62.40
2022-11-22T06:24:35.024Z,57.40
2022-11-22T06:29:38.031Z,66.33
2022-11-22T06:34:41.160Z,58.94
2022-11-22T06:39:44.247Z,62.82
2022-11-22T06:44:47.459Z,59.27
2022-11-22T06:49:50.370Z,59.77
2022-11-22T06:54:53.570Z,66.62
2022-11-22T06:59:56.683Z,56.72
2022-11-22T07:05:24.122Z,64.19
2022-11-22T07:10:22.971Z,59.15
2022-11-22T07:15:26.080Z,64.75
2022-11-22T07:20:29.086Z,57.17
2022-11-22T07:25:32.194Z,64.56
2022-11-22T07:30:37.600Z,59.76
2022-11-22T07:35:42.917Z,57.71
2022-11-22T07:40:46.030Z,66.51
2022-11-22T07:45:49.038Z,58.04
2022-11-22T07:50:52.244Z,63.31
2022-11-22T07:55:55.269Z,61.72
2022-11-22T08:00:58.358Z,57.75
2022-11-22T08:06:02.692Z,65.95
2022-11-22T08:11:07.569Z,57.79
2022-11-22T08:16:14.474Z,58.95
2022-11-22T08:21:19.096Z,65.22
2022-11-22T08:26:22.298Z,56.52
2022-11-22T08:31:27.044Z,63.91
2022-11-22T08:36:30.668Z,60.19
2022-11-22T08:41:33.775Z,58.12
2022-11-22T08:46:36.781Z,64.58
2022-11-22T08:51:45.090Z,59.94
2022-11-22T08:56:48.124Z,63.22
2022-11-22T09:01:51.290Z,63.86
2022-11-22T09:12:18.027Z,63.54
2022-11-22T09:17:22.161Z,60.53
2022-11-22T09:22:28.379Z,56.58
2022-11-22T09:27:33.332Z,63.09
2022-11-22T09:32:36.411Z,59.18
2022-11-22T09:37:39.509Z,63.94
2022-11-22T09:43:04.224Z,59.62
2022-11-22T09:48:45.945Z,62.73
2022-11-22T09:54:13.457Z,57.96
2022-11-22T09:59:24.100Z,60.87
2022-11-22T10:04:45.138Z,60.96
2022-11-22T10:10:03.508Z,56.58
2022-11-22T10:15:31.715Z,63.76
2022-11-22T10:20:45.710Z,57.02
2022-11-22T10:26:03.493Z,62.69
2022-11-22T10:31:15.430Z,60.56
2022-11-22T10:36:30.626Z,62.24
2022-11-22T10:41:39.883Z,61.08
2022-11-22T10:46:46.266Z,59.97
2022-11-22T10:52:24.396Z,60.06
2022-11-22T10:57:46.039Z,62.55
2022-11-22T11:03:01.228Z,61.00
2022-11-22T11:08:36.601Z,61.06
2022-11-22T11:13:54.139Z,60.22
2022-11-22T11:19:13.427Z,60.24
2022-11-22T11:24:17.639Z,60.26
2022-11-22T11:29:37.644Z,63.65
2022-11-22T11:35:00.543Z,58.04
2022-11-22T11:40:25.051Z,63.52
2022-11-22T11:45:29.317Z,56.69
2022-11-22T11:50:32.298Z,63.80
2022-11-22T11:55:36.650Z,59.60
2022-11-22T12:00:40.422Z,59.70
2022-11-22T12:05:43.871Z,62.20
2022-11-22T12:11:09.144Z,58.01
2022-11-22T12:16:21.838Z,63.91
2022-11-22T12:21:39.281Z,58.02
2022-11-22T12:26:42.284Z,63.81
2022-11-22T12:31:59.727Z,61.91
2022-11-22T12:37:15.023Z,59.19
2022-11-22T12:42:29.910Z,63.23
2022-11-22T12:47:43.877Z,59.22
2022-11-22T12:52:53.229Z,64.34
2022-11-22T12:58:02.333Z,64.67
2022-11-22T13:03:23.818Z,64.86
2022-11-22T13:08:53.293Z,65.64
2022-11-22T13:14:07.722Z,58.95
2022-11-22T13:19:17.036Z,64.36
2022-11-22T13:24:40.867Z,66.38
2022-11-22T13:29:44.601Z,67.57
2022-11-22T13:35:08.044Z,67.41
2022-11-22T13:40:17.030Z,67.92
2022-11-22T13:45:24.840Z,67.69
2022-11-22T13:50:40.244Z,67.81
2022-11-22T13:55:43.447Z,67.70
2022-11-22T14:00:46.858Z,68.03
2022-11-22T14:05:52.844Z,66.48
2022-11-22T14:10:55.750Z,64.59
2022-11-22T14:16:18.514Z,63.70
2022-11-22T14:21:27.571Z,64.42
2022-11-22T14:26:46.961Z,64.97
2022-11-22T14:31:59.585Z,64.15
2022-11-22T14:37:15.299Z,60.67
2022-11-22T14:42:47.179Z,65.36
2022-11-22T14:47:53.258Z,66.09
2022-11-22T14:52:59.631Z,65.95
2022-11-22T14:58:08.343Z,65.88
2022-11-22T15:03:32.690Z,66.58
2022-11-22T15:09:39.387Z,66.80
2022-11-22T15:14:57.038Z,67.81
2022-11-22T15:58:15.373Z,64.73
2022-11-22T16:03:24.727Z,64.40
2022-11-22T16:08:32.305Z,64.36
2022-11-22T16:13:36.375Z,64.28
2022-11-22T16:18:43.990Z,62.46
2022-11-22T16:23:48.428Z,61.88
2022-11-22T16:28:53.902Z,62.37
2022-11-22T16:33:58.416Z,62.49
2022-11-22T16:39:01.646Z,62.87
2022-11-22T16:44:12.742Z,63.06
2022-11-22T16:49:21.377Z,62.97
2022-11-22T16:54:24.489Z,63.09
2022-11-22T16:59:27.410Z,63.20
2022-11-22T17:04:31.015Z,63.51
2022-11-22T17:09:34.512Z,65.79
2022-11-22T17:14:37.649Z,66.28
2022-11-22T17:19:56.237Z,66.63
2022-11-22T17:24:59.427Z,67.76
2022-11-22T17:30:02.434Z,68.25
2022-11-22T17:35:06.694Z,67.94
2022-11-22T17:40:10.822Z,68.71
2022-11-22T17:45:13.813Z,69.58
2022-11-22T17:50:17.224Z,68.52
2022-11-22T17:55:20.428Z,66.72
2022-11-22T18:00:29.702Z,66.28
2022-11-22T18:05:36.174Z,67.18
2022-11-22T18:10:39.181Z,68.77
2022-11-22T18:15:42.286Z,70.26
2022-11-22T18:20:53.934Z,69.75
2022-11-22T18:26:17.050Z,69.36
2022-11-22T18:31:27.330Z,68.34
2022-11-22T18:41:55.889Z,67.98
2022-11-22T18:46:58.999Z,69.42
2022-11-22T18:52:02.007Z,68.16
2022-11-22T18:57:05.323Z,68.49
2022-11-22T19:02:08.844Z,68.46
2022-11-22T19:07:14.463Z,68.78
2022-11-22T19:12:17.516Z,69.97
2022-11-22T19:17:22.117Z,68.93
2022-11-22T19:22:30.288Z,68.33
2022-11-22T19:27:33.403Z,69.63
2022-11-22T19:32:36.404Z,71.12
2022-11-22T19:37:39.616Z,71.01
2022-11-22T19:42:42.929Z,71.01
2022-11-22T19:47:46.132Z,70.13
2022-11-22T19:52:49.142Z,70.09
2022-11-22T19:57:52.150Z,69.25
2022-11-22T20:02:55.256Z,70.89
2022-11-22T20:07:59.420Z,71.00
2022-11-22T20:13:02.885Z,71.67
2022-11-22T20:18:06.736Z,71.42
2022-11-22T20:23:09.841Z,70.24
2022-11-22T20:28:12.846Z,69.83
2022-11-22T20:33:19.438Z,69.21
2022-11-22T20:38:23.163Z,68.95
2022-11-22T20:43:26.707Z,69.96
2022-11-22T20:48:31.665Z,70.56
2022-11-22T20:53:35.152Z,71.48
2022-11-22T20:58:38.785Z,70.22
2022-11-22T21:03:42.668Z,71.36
2022-11-22T21:08:46.367Z,72.01
2022-11-22T21:13:50.614Z,71.79
2022-11-22T21:19:01.563Z,71.22
2022-11-22T21:24:06.167Z,71.15
2022-11-22T21:29:16.475Z,70.48
2022-11-22T21:34:19.988Z,68.83
2022-11-22T21:39:23.307Z,69.15
2022-11-22T21:44:26.308Z,69.60
2022-11-22T21:49:29.213Z,69.05
2022-11-22T21:54:33.301Z,68.79
2022-11-22T21:59:36.558Z,69.10
2022-11-22T22:04:39.565Z,69.80
2022-11-22T22:09:42.470Z,69.79
2022-11-22T22:14:45.576Z,69.74
2022-11-22T22:19:49.715Z,68.94
2022-11-22T22:24:52.728Z,69.44
2022-11-22T22:29:55.825Z,69.25
2022-11-22T22:34:58.826Z,69.62
2022-11-22T22:40:02.438Z,69.39
2022-11-22T22:45:06.200Z,69.89
2022-11-22T22:50:09.795Z,71.80
2022-11-22T22:55:12.903Z,71.89
2022-11-22T23:00:16.826Z,72.25
2022-11-22T23:05:19.940Z,71.84
2022-11-22T23:10:23.150Z,72.02
2022-11-22T23:15:50.875Z,72.31
2022-11-22T23:20:49.334Z,71.84
2022-11-22T23:25:52.345Z,71.50
2022-11-22T23:30:58.011Z,70.60
2022-11-22T23:36:03.170Z,70.75
2022-11-22T23:41:06.688Z,70.28
2022-11-22T23:46:17.786Z,69.77
2022-11-22T23:51:21.710Z,70.19
2022-11-22T23:56:25.770Z,69.42
